sensor_id;sensor_type;location;lat;lon;timestamp;pressure;altitude;pressure_sealevel;temperature;humidity
71567;BME280;59403;47.456;19.120;2024-01-15T00:00:10;99126.25;;;-2.01;100.00
71567;BME280;59403;47.456;19.120;2024-01-15T00:02:37;99135.00;;;-2.02;100.00
71567;BME280;59403;47.456;19.120;2024-01-15T00:05:06;99115.88;;;-2.01;100.00
71567;BME280;59403;47.456;19.120;2024-01-15T00:07:32;99107.19;;;-2.00;100.00
71567;BME280;59403;47.456;19.120;2024-01-15T00:09:59;99112.25;;;-1.98;100.00
71567;BME280;59403;47.456;19.120;2024-01-15T00:12:25;99094.09;;;-1.98;100.00
71567;BME280;59403;47.456;19.120;2024-01-15T00:14:53;99079.59;;;-2.01;100.00
71567;BME280;59403;47.456;19.120;2024-01-15T00:17:21;99087.97;;;-1.97;100.00
71567;BME280;59403;47.456;19.120;2024-01-15T00:19:48;99071.47;;;-1.96;100.00
71567;BME280;59403;47.456;19.120;2024-01-15T00:22:15;99079.03;;;-1.93;100.00
71567;BME280;59403;47.456;19.120;2024-01-15T00:24:42;99070.19;;;-1.91;100.00
71567;BME280;59403;47.456;19.120;2024-01-15T00:27:09;99062.41;;;-1.91;100.00
71567;BME280;59403;47.456;19.120;2024-01-15T00:29:35;99059.81;;;-1.91;100.00
71567;BME280;59403;47.456;19.120;2024-01-15T00:32:02;99057.00;;;-1.88;100.00
71567;BME280;59403;47.456;19.120;2024-01-15T00:34:29;99053.47;;;-1.87;100.00
71567;BME280;59403;47.456;19.120;2024-01-15T00:36:56;99040.63;;;-1.88;100.00
71567;BME280;59403;47.456;19.120;2024-01-15T00:39:24;99033.66;;;-1.88;100.00
71567;BME280;59403;47.456;19.120;2024-01-15T00:41:51;99033.66;;;-1.88;100.00
71567;BME280;59403;47.456;19.120;2024-01-15T00:44:17;99031.06;;;-1.88;100.00
71567;BME280;59403;47.456;19.120;2024-01-15T00:46:44;99030.97;;;-1.86;100.00
71567;BME280;59403;47.456;19.120;2024-01-15T00:49:11;99047.25;;;-1.84;100.00
71567;BME280;59403;47.456;19.120;2024-01-15T00:51:38;99048.28;;;-1.87;100.00
71567;BME280;59403;47.456;19.120;2024-01-15T00:54:05;99056.66;;;-1.83;100.00
71567;BME280;59403;47.456;19.120;2024-01-15T00:56:33;99043.56;;;-1.82;100.00
71567;BME280;59403;47.456;19.120;2024-01-15T00:59:01;99037.47;;;-1.81;100.00
71567;BME280;59403;47.456;19.120;2024-01-15T01:01:27;99044.41;;;-1.81;100.00
71567;BME280;59403;47.456;19.120;2024-01-15T01:03:55;99034.75;;;-1.79;100.00
71567;BME280;59403;47.456;19.120;2024-01-15T01:06:21;99027.78;;;-1.79;100.00
71567;BME280;59403;47.456;19.120;2024-01-15T01:08:48;99036.28;;;-1.77;100.00
71567;BME280;59403;47.456;19.120;2024-01-15T01:11:15;99016.59;;;-1.79;100.00
71567;BME280;59403;47.456;19.120;2024-01-15T01:13:43;99019.06;;;-1.78;100.00
71567;BME280;59403;47.456;19.120;2024-01-15T01:16:09;99019.91;;;-1.77;100.00
71567;BME280;59403;47.456;19.120;2024-01-15T01:18:36;99013.06;;;-1.78;100.00
71567;BME280;59403;47.456;19.120;2024-01-15T01:21:03;99009.63;;;-1.79;100.00
71567;BME280;59403;47.456;19.120;2024-01-15T01:23:30;99005.38;;;-1.80;100.00
71567;BME280;59403;47.456;19.120;2024-01-15T01:25:56;98998.56;;;-1.81;100.00
71567;BME280;59403;47.456;19.120;2024-01-15T01:28:23;98993.38;;;-1.81;100.00
71567;BME280;59403;47.456;19.120;2024-01-15T01:30:51;98991.69;;;-1.82;100.00
71567;BME280;59403;47.456;19.120;2024-01-15T01:33:17;99002.06;;;-1.82;100.00
71567;BME280;59403;47.456;19.120;2024-01-15T01:35:44;98975.41;;;-1.84;100.00
71567;BME280;59403;47.456;19.120;2024-01-15T01:38:12;98978.25;;;-1.87;100.00
71567;BME280;59403;47.456;19.120;2024-01-15T01:40:38;98980.72;;;-1.85;100.00
71567;BME280;59403;47.456;19.120;2024-01-15T01:43:05;98977.41;;;-1.87;100.00
71567;BME280;59403;47.456;19.120;2024-01-15T01:45:32;98984.25;;;-1.86;100.00
71567;BME280;59403;47.456;19.120;2024-01-15T01:48:00;98974.81;;;-1.87;100.00
71567;BME280;59403;47.456;19.120;2024-01-15T01:50:27;98969.03;;;-1.91;100.00
71567;BME280;59403;47.456;19.120;2024-01-15T01:52:55;98967.38;;;-1.92;100.00
71567;BME280;59403;47.456;19.120;2024-01-15T01:55:24;98952.97;;;-1.96;100.00
71567;BME280;59403;47.456;19.120;2024-01-15T01:57:53;98959.25;;;-1.98;100.00
71567;BME280;59403;47.456;19.120;2024-01-15T02:00:20;98957.81;;;-2.02;100.00
71567;BME280;59403;47.456;19.120;2024-01-15T02:05:24;98937.62;;;-2.10;100.00
71567;BME280;59403;47.456;19.120;2024-01-15T02:07:51;98941.41;;;-2.14;100.00
71567;BME280;59403;47.456;19.120;2024-01-15T02:10:18;98923.69;;;-2.20;100.00
71567;BME280;59403;47.456;19.120;2024-01-15T02:12:44;98925.56;;;-2.22;100.00
71567;BME280;59403;47.456;19.120;2024-01-15T02:15:13;98921.34;;;-2.23;100.00
71567;BME280;59403;47.456;19.120;2024-01-15T02:17:56;98912.00;;;-2.25;100.00
71567;BME280;59403;47.456;19.120;2024-01-15T02:20:24;98904.47;;;-2.28;100.00
71567;BME280;59403;47.456;19.120;2024-01-15T02:22:50;98922.94;;;-2.33;100.00
71567;BME280;59403;47.456;19.120;2024-01-15T02:25:19;98915.25;;;-2.35;100.00
71567;BME280;59403;47.456;19.120;2024-01-15T02:27:46;98930.94;;;-2.36;100.00
71567;BME280;59403;47.456;19.120;2024-01-15T02:30:13;98925.16;;;-2.40;100.00
71567;BME280;59403;47.456;19.120;2024-01-15T02:32:40;98919.28;;;-2.42;100.00
71567;BME280;59403;47.456;19.120;2024-01-15T02:35:07;98924.78;;;-2.46;100.00
71567;BME280;59403;47.456;19.120;2024-01-15T02:37:33;98915.69;;;-2.52;100.00
71567;BME280;59403;47.456;19.120;2024-01-15T02:40:00;98907.28;;;-2.55;100.00
71567;BME280;59403;47.456;19.120;2024-01-15T02:42:28;98905.88;;;-2.59;100.00
71567;BME280;59403;47.456;19.120;2024-01-15T02:44:55;98907.75;;;-2.61;100.00
71567;BME280;59403;47.456;19.120;2024-01-15T02:47:22;98909.75;;;-2.65;100.00
71567;BME280;59403;47.456;19.120;2024-01-15T02:49:50;98901.38;;;-2.68;100.00
71567;BME280;59403;47.456;19.120;2024-01-15T02:52:17;98889.34;;;-2.69;100.00
71567;BME280;59403;47.456;19.120;2024-01-15T02:54:44;98892.88;;;-2.70;100.00
71567;BME280;59403;47.456;19.120;2024-01-15T02:57:11;98878.00;;;-2.79;100.00
71567;BME280;59403;47.456;19.120;2024-01-15T02:59:39;98892.72;;;-2.80;100.00
71567;BME280;59403;47.456;19.120;2024-01-15T03:02:06;98908.34;;;-2.81;100.00
71567;BME280;59403;47.456;19.120;2024-01-15T03:04:32;98909.31;;;-2.82;100.00
71567;BME280;59403;47.456;19.120;2024-01-15T03:06:59;98889.72;;;-2.86;100.00
71567;BME280;59403;47.456;19.120;2024-01-15T03:09:25;98878.88;;;-2.91;100.00
71567;BME280;59403;47.456;19.120;2024-01-15T03:11:52;98870.50;;;-2.95;100.00
71567;BME280;59403;47.456;19.120;2024-01-15T03:14:19;98867.09;;;-2.95;100.00
71567;BME280;59403;47.456;19.120;2024-01-15T03:16:48;98859.53;;;-2.98;100.00
71567;BME280;59403;47.456;19.120;2024-01-15T03:19:14;98864.50;;;-2.95;100.00
71567;BME280;59403;47.456;19.120;2024-01-15T03:21:41;98858.72;;;-2.99;100.00
71567;BME280;59403;47.456;19.120;2024-01-15T03:24:07;98854.38;;;-2.98;100.00
71567;BME280;59403;47.456;19.120;2024-01-15T03:26:36;98851.41;;;-3.05;100.00
71567;BME280;59403;47.456;19.120;2024-01-15T03:29:03;98850.28;;;-3.13;100.00
71567;BME280;59403;47.456;19.120;2024-01-15T03:31:29;98856.38;;;-3.14;100.00
71567;BME280;59403;47.456;19.120;2024-01-15T03:33:57;98849.47;;;-3.14;100.00
71567;BME280;59403;47.456;19.120;2024-01-15T03:36:24;98845.22;;;-3.15;100.00
71567;BME280;59403;47.456;19.120;2024-01-15T03:38:50;98848.84;;;-3.17;100.00
71567;BME280;59403;47.456;19.120;2024-01-15T03:41:17;98856.50;;;-3.16;100.00
71567;BME280;59403;47.456;19.120;2024-01-15T03:43:44;98846.03;;;-3.14;100.00
71567;BME280;59403;47.456;19.120;2024-01-15T03:46:10;98852.88;;;-3.13;100.00
71567;BME280;59403;47.456;19.120;2024-01-15T03:48:38;98877.62;;;-3.09;100.00
71567;BME280;59403;47.456;19.120;2024-01-15T03:51:06;98879.16;;;-3.07;100.00
71567;BME280;59403;47.456;19.120;2024-01-15T03:53:32;98852.66;;;-3.10;100.00
71567;BME280;59403;47.456;19.120;2024-01-15T03:55:59;98865.19;;;-3.04;100.00
71567;BME280;59403;47.456;19.120;2024-01-15T03:58:26;98879.38;;;-3.10;100.00
71567;BME280;59403;47.456;19.120;2024-01-15T04:00:53;98889.28;;;-3.04;100.00
71567;BME280;59403;47.456;19.120;2024-01-15T04:03:20;98873.84;;;-3.05;100.00
71567;BME280;59403;47.456;19.120;2024-01-15T04:05:46;98867.97;;;-3.07;100.00
71567;BME280;59403;47.456;19.120;2024-01-15T04:08:14;98860.66;;;-3.13;100.00
71567;BME280;59403;47.456;19.120;2024-01-15T04:10:41;98860.75;;;-3.15;100.00
71567;BME280;59403;47.456;19.120;2024-01-15T04:13:08;98871.00;;;-3.13;100.00
71567;BME280;59403;47.456;19.120;2024-01-15T04:15:34;98874.63;;;-3.16;100.00
71567;BME280;59403;47.456;19.120;2024-01-15T04:18:02;98862.75;;;-3.18;100.00
71567;BME280;59403;47.456;19.120;2024-01-15T04:20:29;98847.66;;;-3.37;100.00
71567;BME280;59403;47.456;19.120;2024-01-15T04:22:55;98829.56;;;-3.37;100.00
71567;BME280;59403;47.456;19.120;2024-01-15T04:25:23;98837.00;;;-3.32;100.00
71567;BME280;59403;47.456;19.120;2024-01-15T04:27:50;98822.41;;;-3.33;100.00
71567;BME280;59403;47.456;19.120;2024-01-15T04:30:17;98827.69;;;-3.35;100.00
71567;BME280;59403;47.456;19.120;2024-01-15T04:32:43;98826.78;;;-3.34;100.00
71567;BME280;59403;47.456;19.120;2024-01-15T04:35:10;98822.03;;;-3.40;100.00
71567;BME280;59403;47.456;19.120;2024-01-15T04:37:38;98821.09;;;-3.39;100.00
71567;BME280;59403;47.456;19.120;2024-01-15T04:40:05;98811.16;;;-3.45;100.00
71567;BME280;59403;47.456;19.120;2024-01-15T04:42:33;98820.28;;;-3.39;100.00
71567;BME280;59403;47.456;19.120;2024-01-15T04:45:00;98814.47;;;-3.43;100.00
71567;BME280;59403;47.456;19.120;2024-01-15T04:47:27;98812.91;;;-3.46;100.00
71567;BME280;59403;47.456;19.120;2024-01-15T04:49:53;98800.22;;;-3.49;100.00
71567;BME280;59403;47.456;19.120;2024-01-15T04:52:20;98814.91;;;-3.49;100.00
71567;BME280;59403;47.456;19.120;2024-01-15T04:54:47;98819.28;;;-3.50;100.00
71567;BME280;59403;47.456;19.120;2024-01-15T04:57:13;98815.00;;;-3.51;100.00
71567;BME280;59403;47.456;19.120;2024-01-15T04:59:41;98811.81;;;-3.54;100.00
71567;BME280;59403;47.456;19.120;2024-01-15T05:02:08;98821.25;;;-3.53;100.00
71567;BME280;59403;47.456;19.120;2024-01-15T05:04:35;98819.37;;;-3.51;100.00
71567;BME280;59403;47.456;19.120;2024-01-15T05:07:01;98822.16;;;-3.54;100.00
71567;BME280;59403;47.456;19.120;2024-01-15T05:09:28;98829.19;;;-3.56;100.00
71567;BME280;59403;47.456;19.120;2024-01-15T05:11:55;98825.72;;;-3.68;100.00
71567;BME280;59403;47.456;19.120;2024-01-15T05:14:21;98830.38;;;-3.73;100.00
71567;BME280;59403;47.456;19.120;2024-01-15T05:16:50;98835.84;;;-3.65;100.00
71567;BME280;59403;47.456;19.120;2024-01-15T05:19:16;98824.69;;;-3.65;100.00
71567;BME280;59403;47.456;19.120;2024-01-15T05:21:43;98840.09;;;-3.64;100.00
71567;BME280;59403;47.456;19.120;2024-01-15T05:24:10;98830.47;;;-3.62;100.00
71567;BME280;59403;47.456;19.120;2024-01-15T05:26:36;98847.12;;;-3.66;100.00
71567;BME280;59403;47.456;19.120;2024-01-15T05:29:03;98839.50;;;-3.67;100.00
71567;BME280;59403;47.456;19.120;2024-01-15T05:31:30;98838.44;;;-3.65;100.00
71567;BME280;59403;47.456;19.120;2024-01-15T05:33:58;98840.22;;;-3.65;100.00
71567;BME280;59403;47.456;19.120;2024-01-15T05:36:24;98837.63;;;-3.65;100.00
71567;BME280;59403;47.456;19.120;2024-01-15T05:38:51;98841.84;;;-3.64;100.00
71567;BME280;59403;47.456;19.120;2024-01-15T05:41:18;98842.19;;;-3.69;100.00
71567;BME280;59403;47.456;19.120;2024-01-15T05:43:44;98840.50;;;-3.70;100.00
71567;BME280;59403;47.456;19.120;2024-01-15T05:46:11;98831.72;;;-3.67;100.00
71567;BME280;59403;47.456;19.120;2024-01-15T05:48:38;98841.13;;;-3.66;100.00
71567;BME280;59403;47.456;19.120;2024-01-15T05:51:06;98843.59;;;-3.65;100.00
71567;BME280;59403;47.456;19.120;2024-01-15T05:53:32;98841.00;;;-3.65;100.00
71567;BME280;59403;47.456;19.120;2024-01-15T05:55:59;98843.00;;;-3.68;100.00
71567;BME280;59403;47.456;19.120;2024-01-15T05:58:26;98839.59;;;-3.69;100.00
71567;BME280;59403;47.456;19.120;2024-01-15T06:00:53;98846.62;;;-3.71;100.00
71567;BME280;59403;47.456;19.120;2024-01-15T06:03:20;98843.09;;;-3.70;100.00
71567;BME280;59403;47.456;19.120;2024-01-15T06:05:46;98838.38;;;-3.76;100.00
71567;BME280;59403;47.456;19.120;2024-01-15T06:08:14;98841.34;;;-3.69;100.00
71567;BME280;59403;47.456;19.120;2024-01-15T06:10:41;98835.34;;;-3.70;100.00
71567;BME280;59403;47.456;19.120;2024-01-15T06:13:07;98841.13;;;-3.66;100.00
71567;BME280;59403;47.456;19.120;2024-01-15T06:15:34;98834.31;;;-3.67;100.00
71567;BME280;59403;47.456;19.120;2024-01-15T06:18:01;98823.25;;;-3.69;100.00
71567;BME280;59403;47.456;19.120;2024-01-15T06:20:27;98834.44;;;-3.69;100.00
71567;BME280;59403;47.456;19.120;2024-01-15T06:22:54;98833.06;;;-3.62;100.00
71567;BME280;59403;47.456;19.120;2024-01-15T06:25:22;98838.84;;;-3.58;100.00
71567;BME280;59403;47.456;19.120;2024-01-15T06:27:49;98829.31;;;-3.58;100.00
71567;BME280;59403;47.456;19.120;2024-01-15T06:30:15;98829.00;;;-3.53;100.00
71567;BME280;59403;47.456;19.120;2024-01-15T06:32:42;98829.63;;;-3.50;100.00
71567;BME280;59403;47.456;19.120;2024-01-15T06:35:09;98835.59;;;-3.49;100.00
71567;BME280;59403;47.456;19.120;2024-01-15T06:37:37;98831.16;;;-3.47;100.00
71567;BME280;59403;47.456;19.120;2024-01-15T06:40:04;98829.16;;;-3.43;100.00
71567;BME280;59403;47.456;19.120;2024-01-15T06:42:32;98839.28;;;-3.40;100.00
71567;BME280;59403;47.456;19.120;2024-01-15T06:44:59;98842.59;;;-3.38;100.00
71567;BME280;59403;47.456;19.120;2024-01-15T06:47:26;98845.06;;;-3.37;100.00
71567;BME280;59403;47.456;19.120;2024-01-15T06:49:52;98858.75;;;-3.35;100.00
71567;BME280;59403;47.456;19.120;2024-01-15T06:52:19;98856.66;;;-3.30;100.00
71567;BME280;59403;47.456;19.120;2024-01-15T06:54:45;98848.41;;;-3.35;100.00
71567;BME280;59403;47.456;19.120;2024-01-15T06:57:13;98856.47;;;-3.27;100.00
71567;BME280;59403;47.456;19.120;2024-01-15T06:59:41;98843.63;;;-3.28;100.00
71567;BME280;59403;47.456;19.120;2024-01-15T07:02:07;98835.87;;;-3.28;100.00
71567;BME280;59403;47.456;19.120;2024-01-15T07:04:34;98853.97;;;-3.28;100.00
71567;BME280;59403;47.456;19.120;2024-01-15T07:07:01;98841.84;;;-3.28;100.00
71567;BME280;59403;47.456;19.120;2024-01-15T07:09:28;98856.22;;;-3.24;100.00
71567;BME280;59403;47.456;19.120;2024-01-15T07:11:54;98851.56;;;-3.19;100.00
71567;BME280;59403;47.456;19.120;2024-01-15T07:14:22;98859.09;;;-3.16;100.00
71567;BME280;59403;47.456;19.120;2024-01-15T07:16:53;98860.66;;;-3.13;100.00
71567;BME280;59403;47.456;19.120;2024-01-15T07:19:24;98864.47;;;-3.06;100.00
71567;BME280;59403;47.456;19.120;2024-01-15T07:21:51;98875.41;;;-3.03;100.00
71567;BME280;59403;47.456;19.120;2024-01-15T07:24:18;98865.44;;;-2.96;100.00
71567;BME280;59403;47.456;19.120;2024-01-15T07:26:44;98868.75;;;-2.94;100.00
71567;BME280;59403;47.456;19.120;2024-01-15T07:29:11;98861.72;;;-2.92;100.00
71567;BME280;59403;47.456;19.120;2024-01-15T07:31:38;98873.81;;;-2.93;100.00
71567;BME280;59403;47.456;19.120;2024-01-15T07:34:06;98873.94;;;-2.94;100.00
71567;BME280;59403;47.456;19.120;2024-01-15T07:36:33;98882.53;;;-2.94;100.00
71567;BME280;59403;47.456;19.120;2024-01-15T07:38:59;98883.94;;;-2.90;100.00
71567;BME280;59403;47.456;19.120;2024-01-15T07:41:26;98878.03;;;-2.92;100.00
71567;BME280;59403;47.456;19.120;2024-01-15T07:43:53;98876.19;;;-2.90;100.00
71567;BME280;59403;47.456;19.120;2024-01-15T07:46:19;98875.25;;;-2.89;100.00
71567;BME280;59403;47.456;19.120;2024-01-15T07:48:46;98876.06;;;-2.88;100.00
71567;BME280;59403;47.456;19.120;2024-01-15T07:51:14;98877.72;;;-2.87;100.00
71567;BME280;59403;47.456;19.120;2024-01-15T07:53:40;98879.59;;;-2.89;100.00
71567;BME280;59403;47.456;19.120;2024-01-15T07:56:07;98885.72;;;-2.90;100.00
71567;BME280;59403;47.456;19.120;2024-01-15T07:58:34;98889.47;;;-2.94;100.00
71567;BME280;59403;47.456;19.120;2024-01-15T08:01:01;98888.53;;;-2.93;100.00
71567;BME280;59403;47.456;19.120;2024-01-15T08:03:30;98884.19;;;-2.93;100.00
71567;BME280;59403;47.456;19.120;2024-01-15T08:05:57;98873.59;;;-2.90;100.00
71567;BME280;59403;47.456;19.120;2024-01-15T08:08:26;98882.91;;;-2.87;100.00
71567;BME280;59403;47.456;19.120;2024-01-15T08:10:52;98879.19;;;-2.83;100.00
71567;BME280;59403;47.456;19.120;2024-01-15T08:13:19;98885.66;;;-2.78;100.00
71567;BME280;59403;47.456;19.120;2024-01-15T08:15:46;98885.09;;;-2.70;100.00
71567;BME280;59403;47.456;19.120;2024-01-15T08:18:13;98878.66;;;-2.65;100.00
71567;BME280;59403;47.456;19.120;2024-01-15T08:20:40;98885.31;;;-2.50;100.00
71567;BME280;59403;47.456;19.120;2024-01-15T08:23:06;98898.91;;;-2.35;100.00
71567;BME280;59403;47.456;19.120;2024-01-15T08:25:35;98909.97;;;-1.98;100.00
71567;BME280;59403;47.456;19.120;2024-01-15T08:28:02;98915.28;;;-1.89;100.00
71567;BME280;59403;47.456;19.120;2024-01-15T08:30:28;98915.06;;;-1.42;100.00
71567;BME280;59403;47.456;19.120;2024-01-15T08:32:55;98907.62;;;-1.35;100.00
71567;BME280;59403;47.456;19.120;2024-01-15T08:35:25;98915.28;;;-1.34;100.00
71567;BME280;59403;47.456;19.120;2024-01-15T08:37:52;98917.53;;;-1.18;100.00
71567;BME280;59403;47.456;19.120;2024-01-15T08:40:19;98908.06;;;-0.97;100.00
71567;BME280;59403;47.456;19.120;2024-01-15T08:42:47;98922.91;;;-0.77;100.00
71567;BME280;59403;47.456;19.120;2024-01-15T08:45:14;98909.31;;;-0.80;100.00
71567;BME280;59403;47.456;19.120;2024-01-15T08:47:41;98908.06;;;-0.54;100.00
71567;BME280;59403;47.456;19.120;2024-01-15T08:50:07;98900.12;;;-0.53;100.00
71567;BME280;59403;47.456;19.120;2024-01-15T08:52:35;98899.12;;;-0.41;100.00
71567;BME280;59403;47.456;19.120;2024-01-15T08:55:02;98907.34;;;-0.25;100.00
71567;BME280;59403;47.456;19.120;2024-01-15T08:57:29;98912.59;;;-0.15;100.00
71567;BME280;59403;47.456;19.120;2024-01-15T08:59:57;98899.34;;;0.09;100.00
71567;BME280;59403;47.456;19.120;2024-01-15T09:02:25;98908.97;;;0.38;98.22
71567;BME280;59403;47.456;19.120;2024-01-15T09:04:51;98900.75;;;0.43;96.36
71567;BME280;59403;47.456;19.120;2024-01-15T09:07:18;98911.75;;;0.86;90.92
71567;BME280;59403;47.456;19.120;2024-01-15T09:09:44;98916.13;;;0.85;91.18
71567;BME280;59403;47.456;19.120;2024-01-15T09:12:11;98921.31;;;0.76;91.93
71567;BME280;59403;47.456;19.120;2024-01-15T09:14:40;98922.38;;;0.64;93.32
71567;BME280;59403;47.456;19.120;2024-01-15T09:17:08;98923.06;;;0.66;95.84
71567;BME280;59403;47.456;19.120;2024-01-15T09:19:35;98909.16;;;0.86;92.98
71567;BME280;59403;47.456;19.120;2024-01-15T09:22:02;98910.84;;;0.96;91.61
71567;BME280;59403;47.456;19.120;2024-01-15T09:24:29;98906.50;;;1.16;89.70
71567;BME280;59403;47.456;19.120;2024-01-15T09:26:56;98897.44;;;1.39;84.61
71567;BME280;59403;47.456;19.120;2024-01-15T09:29:22;98906.66;;;1.34;87.11
71567;BME280;59403;47.456;19.120;2024-01-15T09:31:49;98900.62;;;1.62;84.21
71567;BME280;59403;47.456;19.120;2024-01-15T09:34:18;98894.59;;;1.52;83.89
71567;BME280;59403;47.456;19.120;2024-01-15T09:36:44;98890.06;;;1.54;85.22
71567;BME280;59403;47.456;19.120;2024-01-15T09:39:11;98887.03;;;1.58;83.99
71567;BME280;59403;47.456;19.120;2024-01-15T09:41:38;98891.16;;;1.80;81.63
71567;BME280;59403;47.456;19.120;2024-01-15T09:44:05;98880.19;;;1.67;83.35
71567;BME280;59403;47.456;19.120;2024-01-15T09:46:33;98881.94;;;1.76;83.34
71567;BME280;59403;47.456;19.120;2024-01-15T09:49:00;98871.53;;;1.66;82.72
71567;BME280;59403;47.456;19.120;2024-01-15T09:51:31;98865.84;;;1.99;79.52
71567;BME280;59403;47.456;19.120;2024-01-15T09:53:58;98857.87;;;2.01;79.20
71567;BME280;59403;47.456;19.120;2024-01-15T09:56:25;98857.47;;;1.96;81.66
71567;BME280;59403;47.456;19.120;2024-01-15T09:58:52;98848.63;;;2.16;79.66
71567;BME280;59403;47.456;19.120;2024-01-15T10:01:20;98844.78;;;2.20;78.05
71567;BME280;59403;47.456;19.120;2024-01-15T10:03:47;98847.75;;;2.35;77.50
71567;BME280;59403;47.456;19.120;2024-01-15T10:06:15;98844.31;;;2.24;77.99
71567;BME280;59403;47.456;19.120;2024-01-15T10:08:46;98842.37;;;2.36;76.90
71567;BME280;59403;47.456;19.120;2024-01-15T10:11:13;98852.94;;;2.44;75.93
71567;BME280;59403;47.456;19.120;2024-01-15T10:13:40;98837.72;;;2.30;77.34
71567;BME280;59403;47.456;19.120;2024-01-15T10:16:07;98837.09;;;2.46;78.24
71567;BME280;59403;47.456;19.120;2024-01-15T10:18:34;98835.53;;;2.62;74.32
71567;BME280;59403;47.456;19.120;2024-01-15T10:21:02;98833.38;;;2.75;72.86
71567;BME280;59403;47.456;19.120;2024-01-15T10:23:29;98829.63;;;2.60;74.59
71567;BME280;59403;47.456;19.120;2024-01-15T10:25:58;98823.75;;;2.76;73.02
71567;BME280;59403;47.456;19.120;2024-01-15T10:28:26;98822.81;;;2.94;71.97
71567;BME280;59403;47.456;19.120;2024-01-15T10:30:57;98822.34;;;2.81;74.23
71567;BME280;59403;47.456;19.120;2024-01-15T10:33:25;98809.56;;;2.78;73.11
71567;BME280;59403;47.456;19.120;2024-01-15T10:35:54;98807.62;;;2.80;73.09
71567;BME280;59403;47.456;19.120;2024-01-15T10:38:21;98811.75;;;2.83;72.07
71567;BME280;59403;47.456;19.120;2024-01-15T10:40:48;98806.81;;;2.97;70.76
71567;BME280;59403;47.456;19.120;2024-01-15T10:43:18;98801.72;;;2.78;70.47
71567;BME280;59403;47.456;19.120;2024-01-15T10:45:45;98800.00;;;2.69;70.45
71567;BME280;59403;47.456;19.120;2024-01-15T10:48:12;98803.69;;;2.76;71.74
71567;BME280;59403;47.456;19.120;2024-01-15T10:50:39;98798.06;;;2.89;69.70
71567;BME280;59403;47.456;19.120;2024-01-15T10:53:07;98805.47;;;2.76;70.90
71567;BME280;59403;47.456;19.120;2024-01-15T10:55:35;98790.16;;;2.81;71.02
71567;BME280;59403;47.456;19.120;2024-01-15T10:58:02;98805.37;;;2.85;71.19
71567;BME280;59403;47.456;19.120;2024-01-15T11:00:31;98804.87;;;2.99;68.52
71567;BME280;59403;47.456;19.120;2024-01-15T11:03:00;98798.19;;;2.70;71.71
71567;BME280;59403;47.456;19.120;2024-01-15T11:05:27;98802.84;;;2.76;70.90
71567;BME280;59403;47.456;19.120;2024-01-15T11:07:55;98795.13;;;3.19;69.21
71567;BME280;59403;47.456;19.120;2024-01-15T11:10:41;98798.75;;;2.91;70.77
71567;BME280;59403;47.456;19.120;2024-01-15T11:13:09;98802.34;;;2.90;71.43
71567;BME280;59403;47.456;19.120;2024-01-15T11:15:55;98805.28;;;3.22;70.10
71567;BME280;59403;47.456;19.120;2024-01-15T11:18:22;98802.06;;;3.28;69.79
71567;BME280;59403;47.456;19.120;2024-01-15T11:23:54;98803.34;;;3.24;70.93
71567;BME280;59403;47.456;19.120;2024-01-15T11:26:34;98790.31;;;3.32;69.36
71567;BME280;59403;47.456;19.120;2024-01-15T11:29:02;98786.00;;;3.23;71.01
71567;BME280;59403;47.456;19.120;2024-01-15T11:31:57;98792.34;;;3.38;69.48
71567;BME280;59403;47.456;19.120;2024-01-15T11:34:58;98781.78;;;3.47;68.93
71567;BME280;59403;47.456;19.120;2024-01-15T11:37:28;98767.53;;;3.42;69.41
71567;BME280;59403;47.456;19.120;2024-01-15T11:39:55;98779.25;;;3.56;68.97
71567;BME280;59403;47.456;19.120;2024-01-15T11:42:23;98782.16;;;3.53;68.33
71567;BME280;59403;47.456;19.120;2024-01-15T11:44:49;98766.31;;;3.54;68.60
71567;BME280;59403;47.456;19.120;2024-01-15T11:47:36;98763.78;;;3.44;70.20
71567;BME280;59403;47.456;19.120;2024-01-15T11:50:09;98763.03;;;3.52;70.05
71567;BME280;59403;47.456;19.120;2024-01-15T11:52:37;98768.91;;;3.72;68.73
71567;BME280;59403;47.456;19.120;2024-01-15T11:55:11;98777.19;;;3.67;68.64
71567;BME280;59403;47.456;19.120;2024-01-15T11:57:41;98768.91;;;3.72;68.42
71567;BME280;59403;47.456;19.120;2024-01-15T12:00:10;98757.59;;;3.71;68.19
71567;BME280;59403;47.456;19.120;2024-01-15T12:02:39;98745.47;;;3.70;69.04
71567;BME280;59403;47.456;19.120;2024-01-15T12:05:07;98746.19;;;3.55;70.07
71567;BME280;59403;47.456;19.120;2024-01-15T12:07:34;98737.38;;;3.56;70.36
71567;BME280;59403;47.456;19.120;2024-01-15T12:10:00;98750.94;;;3.77;69.31
71567;BME280;59403;47.456;19.120;2024-01-15T12:12:36;98751.16;;;3.66;69.41
71567;BME280;59403;47.456;19.120;2024-01-15T12:15:04;98745.75;;;3.59;70.04
71567;BME280;59403;47.456;19.120;2024-01-15T12:17:31;98743.28;;;3.58;69.73
71567;BME280;59403;47.456;19.120;2024-01-15T12:19:59;98745.69;;;3.77;68.78
71567;BME280;59403;47.456;19.120;2024-01-15T12:22:26;98743.22;;;3.75;68.98
71567;BME280;59403;47.456;19.120;2024-01-15T12:24:53;98724.75;;;3.77;68.19
71567;BME280;59403;47.456;19.120;2024-01-15T12:27:20;98727.38;;;3.77;67.99
71567;BME280;59403;47.456;19.120;2024-01-15T12:29:47;98722.13;;;3.77;67.51
71567;BME280;59403;47.456;19.120;2024-01-15T12:32:13;98712.53;;;3.85;67.39
71567;BME280;59403;47.456;19.120;2024-01-15T12:34:43;98708.81;;;3.70;67.78
71567;BME280;59403;47.456;19.120;2024-01-15T12:37:11;98719.16;;;3.72;67.99
71567;BME280;59403;47.456;19.120;2024-01-15T12:39:38;98696.69;;;3.61;67.79
71567;BME280;59403;47.456;19.120;2024-01-15T12:42:05;98700.19;;;3.78;66.31
71567;BME280;59403;47.456;19.120;2024-01-15T12:44:32;98695.94;;;3.77;66.48
71567;BME280;59403;47.456;19.120;2024-01-15T12:46:58;98703.69;;;3.86;66.27
71567;BME280;59403;47.456;19.120;2024-01-15T12:49:25;98694.22;;;3.93;66.25
71567;BME280;59403;47.456;19.120;2024-01-15T12:51:52;98696.41;;;3.72;66.92